Whitewater Creek, Colorado (Grand Mesa) Weather observations

Data are for observation ending at time listed.
 Day   Time    Ave.   Ave.  Ave.  Vector   Max.    Total    Solar   Ave.  
  of    of     Air    Rel.  Wind   Wind    Wind   Precip.   Rad.    Soil  
Year   Day     Temp.  Hum.  Speed  Dir.    Gust                     Temp. 
2014   (MST)    F      %     mph   deg.    mph      in.     W/m2     F   
------------------------------------------------------------------------------
 326    8:00   23.6    66   18.5   200     24.0    99999.00   99999    99999.0
 326    8:10   23.3    67   15.6   207     21.4    99999.00   99999    99999.0
 326    8:20   22.7    69   13.2   212     18.9    99999.00   99999    99999.0
 326    8:30   22.6    69   14.4   212     21.4    99999.00   99999    99999.0
 326    8:40   22.9    69   12.4   219     16.3    99999.00   99999    99999.0
 326    8:50   24.4    66   16.3   205     24.0    99999.00   99999    99999.0
 326    9:00   25.3    64   19.1   204     25.3    99999.00   99999    99999.0
 326    9:10   26.1    63   20.4   201     26.6    99999.00   99999    99999.0
 326    9:20   26.4    62   21.3   198     27.8    99999.00   99999    99999.0
 326    9:30   27.0    61   22.7   199     27.8    99999.00   99999    99999.0
 326    9:40   27.2    61   23.8   198     30.4    99999.00   99999    99999.0
 326    9:50   27.8    60   25.4   202     31.7    99999.00   99999    99999.0
 326   10:00   28.0    59   23.3   196     30.4    99999.00   99999    99999.0
 326   10:10   27.9    60   23.5   200     30.4    99999.00   99999    99999.0
 326   10:20   28.3    59   22.1   194     31.7    99999.00   99999    99999.0
 326   10:30   29.0    58   20.8   193     27.8    99999.00   99999    99999.0
 326   10:40   28.9    58   24.7   200     33.0    99999.00   99999    99999.0
 326   10:50   28.9    58   26.7   205     33.0    99999.00   99999    99999.0
 326   11:00   29.1    58   24.9   201     31.7    99999.00   99999    99999.0
 326   11:10   29.6    59   23.7   201     30.4    99999.00   99999    99999.0
 326   11:20   29.4    59   25.7   201     33.0    99999.00   99999    99999.0
 326   11:30   29.4    59   24.8   200     31.7    99999.00   99999    99999.0
 326   11:40   29.6    58   24.8   200     33.0    99999.00   99999    99999.0
 326   11:50   29.4    59   26.3   204     35.5    99999.00   99999    99999.0
 326   12:00   29.2    60   27.0   200     34.2    99999.00   99999    99999.0
 326   12:10   29.6    59   27.2   198     38.1    99999.00   99999    99999.0
 326   12:20   29.7    59   27.8   199     38.1    99999.00   99999    99999.0
 326   12:30   29.4    60   30.2   201     39.4    99999.00   99999    99999.0
 326   12:40   29.3    60   28.8   201     38.1    99999.00   99999    99999.0
 326   12:50   29.5    59   28.4   199     38.1    99999.00   99999    99999.0
 326   13:00   29.7    59   27.7   199     38.1    99999.00   99999    99999.0
 326   13:10   30.2    58   27.3   203     35.5    99999.00   99999    99999.0
 326   13:20   30.7    56   29.5   203     39.4    99999.00   99999    99999.0
 326   13:30   30.5    55   30.7   200     40.6    99999.00   99999    99999.0
 326   13:40   30.8    54   28.3   198     35.5    99999.00   99999    99999.0
 326   13:50   30.2    56   28.8   199     38.1    99999.00   99999    99999.0
 326   14:00   29.9    56   28.7   204     35.5    99999.00   99999    99999.0
 326   14:10   29.6    56   28.4   202     38.1    99999.00   99999    99999.0
 326   14:20   29.6    55   29.2   200     35.5    99999.00   99999    99999.0
 326   14:30   29.9    54   27.1   200     35.5    99999.00   99999    99999.0
 326   14:40   29.8    53   29.3   199     36.8    99999.00   99999    99999.0
 326   14:50   29.5    54   27.4   197     35.5    99999.00   99999    99999.0
 326   15:00   29.4    54   27.3   199     35.5    99999.00   99999    99999.0
 326   15:10   29.3    55   25.4   200     33.0    99999.00   99999    99999.0
 326   15:20   29.3    56   23.9   203     31.7    99999.00   99999    99999.0
 326   15:30   29.1    57   21.8   205     26.6    99999.00   99999    99999.0
 326   15:40   29.2    57   19.1   206     25.3    99999.00   99999    99999.0
 326   15:50   28.7    60   16.4   216     21.4    99999.00   99999    99999.0
 326   16:00   26.9    73   17.8   213     25.3    99999.00   99999    99999.0
 326   16:10   27.0    73   14.9   217     22.7    99999.00   99999    99999.0
 326   16:20   27.3    70   16.3   214     25.3    99999.00   99999    99999.0
 326   16:30   27.2    72   19.3   206     26.6    99999.00   99999    99999.0
 326   16:40   27.8    67   22.4   206     31.7    99999.00   99999    99999.0
 326   16:50   27.4    68   24.5   205     31.7    99999.00   99999    99999.0
 326   17:00   27.1    70   24.4   200     30.4    99999.00   99999    99999.0
 326   17:10   26.9    71   23.8   202     29.1    99999.00   99999    99999.0
 326   17:20   26.7    72   21.5   201     27.8    99999.00   99999    99999.0
 326   17:30   26.0    78   21.9   201     29.1    99999.00   99999    99999.0
 326   17:40   24.8    87   28.7   206     36.8    99999.00   99999    99999.0
 326   17:50   24.3    90   23.9   198     30.4    99999.00   99999    99999.0
 326   18:00   23.6    92   23.1   188     33.0    99999.00   99999    99999.0
 326   18:10   23.2    93   21.2   178     29.1    99999.00   99999    99999.0
 326   18:20   23.3    94   17.4   173     25.3    99999.00   99999    99999.0
 326   18:30   23.8    94   13.7   196     25.3    99999.00   99999    99999.0
 326   18:40   23.5    95   16.0   197     21.4    99999.00   99999    99999.0
 326   18:50   23.5    95   20.0   191     26.6    99999.00   99999    99999.0
 326   19:00   23.8    92   20.7   184     27.8    99999.00   99999    99999.0
 326   19:10   24.2    88   19.1   178     26.6    99999.00   99999    99999.0
 326   19:20   24.7    83   21.0   176     27.8    99999.00   99999    99999.0
 326   19:30   25.3    77   21.1   177     30.4    99999.00   99999    99999.0
 326   19:40   25.3    76   18.3   180     27.8    99999.00   99999    99999.0
 326   19:50   25.3    76   21.2   176     27.8    99999.00   99999    99999.0
 326   20:00   25.4    75   19.6   190     26.6    99999.00   99999    99999.0
 326   20:10   25.6    74   20.0   186     30.4    99999.00   99999    99999.0
 326   20:20   25.6    73   21.7   176     30.4    99999.00   99999    99999.0
 326   20:30   26.0    71   21.9   185     29.1    99999.00   99999    99999.0
 326   20:40   26.0    71   26.2   198     36.8    99999.00   99999    99999.0
 326   20:50   25.4    74   25.7   194     33.0    99999.00   99999    99999.0
 326   21:00   25.3    74   26.0   196     34.2    99999.00   99999    99999.0
 326   21:10   23.5    88   26.2   199     33.0    99999.00   99999    99999.0
 326   21:20   23.0    94   24.2   195     31.7    99999.00   99999    99999.0
 326   21:30   23.2    94   22.0   180     29.1    99999.00   99999    99999.0
 326   21:40   23.8    91   21.9   197     27.8    99999.00   99999    99999.0
 326   21:50   24.4    87   22.9   202     31.7    99999.00   99999    99999.0
 326   22:00   24.6    84   22.9   200     29.1    99999.00   99999    99999.0
 326   22:10   24.6    85   24.2   200     31.7    99999.00   99999    99999.0
 326   22:20   24.4    85   20.5   202     26.6    99999.00   99999    99999.0
 326   22:30   24.4    84   16.7   207     22.7    99999.00   99999    99999.0
 326   22:40   24.7    83   21.5   203     27.8    99999.00   99999    99999.0
 326   22:50   24.4    87   19.1   207     26.6    99999.00   99999    99999.0
 326   23:00   24.6    88   17.3   211     25.3    99999.00   99999    99999.0
 326   23:10   24.4    88   13.1   221     18.9    99999.00   99999    99999.0
 326   23:20   24.3    88   11.3   227     17.6    99999.00   99999    99999.0
 326   23:30   24.1    89   11.1   220     16.3    99999.00   99999    99999.0
 326   23:40   23.6    92   13.3   224     17.6    99999.00   99999    99999.0
 326   23:50   23.2    94   10.5   230     18.9    99999.00   99999    99999.0
 327    0:00   22.9    95   12.6   230     20.2    99999.00   99999    99999.0
 327    0:10   22.8    95   12.6   226     17.6    99999.00   99999    99999.0
 327    0:20   22.7    95   10.8   237     21.4    99999.00   99999    99999.0
 327    0:30   22.6    95   10.0   256     16.3    99999.00   99999    99999.0
 327    0:40   22.1    94   14.2   273     21.4    99999.00   99999    99999.0
 327    0:50   21.9    95   14.5   273     20.2    99999.00   99999    99999.0
 327    1:00   21.6    95    8.8   295     18.9    99999.00   99999    99999.0
 327    1:10   21.2    95    6.0   315     15.0    99999.00   99999    99999.0
 327    1:20   20.9    95    7.1   323     20.2    99999.00   99999    99999.0
 327    1:30   20.7    95    6.7   321     20.2    99999.00   99999    99999.0
 327    1:40   20.5    94   11.0   316     24.0    99999.00   99999    99999.0
 327    1:50   20.2    94   11.8   323     21.4    99999.00   99999    99999.0
 327    2:00   19.9    94    3.4   326     11.2    99999.00   99999    99999.0
 327    2:10   19.8    94    2.2   345      2.2    99999.00   99999    99999.0
 327    2:20   19.8    93    2.3   329      3.5    99999.00   99999    99999.0
 327    2:30   20.3    89    3.9   307      9.9    99999.00   99999    99999.0
 327    2:40   20.6    87    4.0   304      9.9    99999.00   99999    99999.0
 327    2:50   20.0    92    3.9   308      9.9    99999.00   99999    99999.0
 327    3:00   20.0    95    6.9   294     22.7    99999.00   99999    99999.0
 327    3:10   19.4    94   12.5   295     24.0    99999.00   99999    99999.0
 327    3:20   19.2    94   11.3   306     24.0    99999.00   99999    99999.0
 327    3:30   19.0    94    9.4   304     20.2    99999.00   99999    99999.0
 327    3:40   18.8    94    9.9   313     17.6    99999.00   99999    99999.0
 327    3:50   18.9    94    8.1   309     18.9    99999.00   99999    99999.0
 327    4:00   18.5    94   11.8   301     22.7    99999.00   99999    99999.0
 327    4:10   18.4    94    8.2   305     18.9    99999.00   99999    99999.0
 327    4:20   18.4    94   10.8   298     22.7    99999.00   99999    99999.0
 327    4:30   18.1    94   13.3   289     22.7    99999.00   99999    99999.0
 327    4:40   17.7    93   12.9   300     26.6    99999.00   99999    99999.0
 327    4:50   17.0    94   13.8   296     24.0    99999.00   99999    99999.0
 327    5:00   17.3    93   15.6   293     27.8    99999.00   99999    99999.0
 327    5:10   16.6    93   16.2   292     25.3    99999.00   99999    99999.0
 327    5:20   16.6    93   12.8   312     26.6    99999.00   99999    99999.0
 327    5:30   16.6    93    8.5   309     18.9    99999.00   99999    99999.0
 327    5:40   16.8    93    7.2   322     15.0    99999.00   99999    99999.0
 327    5:50   16.2    93    5.5   320     16.3    99999.00   99999    99999.0
 327    6:00   16.2    93    6.4   301     16.3    99999.00   99999    99999.0
 327    6:10   16.2    93    4.9   309     16.3    99999.00   99999    99999.0
 327    6:20   15.9    93    7.1   310     16.3    99999.00   99999    99999.0
 327    6:30   15.9    93    3.6   318      9.9    99999.00   99999    99999.0
 327    6:40   16.1    93    3.6   321     13.8    99999.00   99999    99999.0
 327    6:50   16.3    93    3.9   335      8.6    99999.00   99999    99999.0
 327    7:00   16.4    93    2.6   334      4.8    99999.00   99999    99999.0
 327    7:10   16.4    93    6.2   360     17.6    99999.00   99999    99999.0
 327    7:20   16.0    93   12.1     8     20.2    99999.00   99999    99999.0
 327    7:30   15.8    93   11.8    10     17.6    99999.00   99999    99999.0
 327    7:40   15.8    93   11.9     6     20.2    99999.00   99999    99999.0
 327    7:50   15.9    93    9.5     5     18.9    99999.00   99999    99999.0

Return to Whitewater Creek, Colorado graphs page.


Western Regional Climate Center,wrcc@dri.edu